createdAt,value
2017-08-13T00:00:56.385Z,13.70
2017-08-13T00:03:23.340Z,13.60
2017-08-13T00:05:50.270Z,13.60
2017-08-13T00:08:17.225Z,13.60
2017-08-13T00:10:44.157Z,13.60
2017-08-13T00:13:11.116Z,13.50
2017-08-13T00:15:39.052Z,13.60
2017-08-13T00:18:05.999Z,13.50
2017-08-13T00:20:32.937Z,13.50
2017-08-13T00:22:59.889Z,13.50
2017-08-13T00:25:26.823Z,13.60
2017-08-13T00:27:53.805Z,13.60
2017-08-13T00:30:21.732Z,13.70
2017-08-13T00:32:49.430Z,13.80
2017-08-13T00:35:16.413Z,13.80
2017-08-13T00:37:43.351Z,13.80
2017-08-13T00:40:11.296Z,13.90
2017-08-13T00:42:38.237Z,13.80
2017-08-13T00:45:05.176Z,13.80
2017-08-13T00:47:32.104Z,13.70
2017-08-13T01:02:21.154Z,13.90
2017-08-13T01:04:48.101Z,13.90
2017-08-13T01:07:15.029Z,13.90
2017-08-13T01:09:42.013Z,14.00
2017-08-13T01:12:08.940Z,14.00
2017-08-13T01:14:35.888Z,14.00
2017-08-13T01:17:02.848Z,14.00
2017-08-13T01:19:29.776Z,13.90
2017-08-13T01:21:56.730Z,13.90
2017-08-13T01:24:23.661Z,13.90
2017-08-13T01:26:50.617Z,13.90
2017-08-13T01:29:17.552Z,14.00
2017-08-13T01:31:44.502Z,14.00
2017-08-13T01:34:11.439Z,13.90
2017-08-13T01:36:38.419Z,13.80
2017-08-13T01:39:05.376Z,13.70
2017-08-13T01:41:32.301Z,13.60
2017-08-13T01:43:59.251Z,13.50
2017-08-13T01:46:26.189Z,13.60
2017-08-13T01:48:53.143Z,13.60
2017-08-13T01:51:20.072Z,13.70
2017-08-13T01:53:47.017Z,13.60
2017-08-13T01:56:14.049Z,13.60
2017-08-13T01:58:41.012Z,13.50
2017-08-13T02:01:07.952Z,13.40
2017-08-13T02:03:34.895Z,13.50
2017-08-13T02:06:01.825Z,13.40
2017-08-13T02:08:28.778Z,13.40
2017-08-13T02:10:55.717Z,13.40
2017-08-13T02:13:22.662Z,13.40
2017-08-13T02:15:49.597Z,13.40
2017-08-13T02:18:17.388Z,13.40
2017-08-13T02:20:44.326Z,13.40
2017-08-13T02:23:11.302Z,13.40
2017-08-13T02:25:38.223Z,13.40
2017-08-13T02:28:05.161Z,13.30
2017-08-13T02:30:32.108Z,13.20
2017-08-13T02:32:59.048Z,13.20
2017-08-13T02:35:26.009Z,13.10
2017-08-13T02:37:52.953Z,13.20
2017-08-13T02:40:20.883Z,13.00
2017-08-13T02:42:47.817Z,13.00
2017-08-13T02:45:14.770Z,13.00
2017-08-13T02:47:41.708Z,13.00
2017-08-13T02:50:08.664Z,13.00
2017-08-13T02:52:35.601Z,12.90
2017-08-13T02:55:02.554Z,13.00
2017-08-13T02:57:29.495Z,13.00
2017-08-13T02:59:56.481Z,12.90
2017-08-13T03:02:23.402Z,13.00
2017-08-13T03:04:51.367Z,13.00
2017-08-13T03:07:18.325Z,12.90
2017-08-13T03:09:45.253Z,12.90
2017-08-13T03:12:12.209Z,12.90
2017-08-13T03:14:39.136Z,12.90
2017-08-13T03:17:06.085Z,12.90
2017-08-13T03:19:33.017Z,12.90
2017-08-13T03:21:59.973Z,13.00
2017-08-13T03:24:26.899Z,13.00
2017-08-13T03:26:53.839Z,13.00
2017-08-13T03:29:20.773Z,13.10
2017-08-13T03:31:47.730Z,13.20
2017-08-13T03:34:14.664Z,13.30
2017-08-13T03:36:41.610Z,13.30
2017-08-13T03:39:08.546Z,13.30
2017-08-13T03:41:37.260Z,13.30
2017-08-13T03:44:04.206Z,13.40
2017-08-13T03:46:31.177Z,13.40
2017-08-13T03:48:58.157Z,13.40
2017-08-13T03:51:25.976Z,13.50
2017-08-13T03:53:52.931Z,13.50
2017-08-13T03:56:19.860Z,13.50
2017-08-13T03:58:46.817Z,13.40
2017-08-13T04:01:15.381Z,13.30
2017-08-13T04:03:42.340Z,13.30
2017-08-13T04:06:09.277Z,13.30
2017-08-13T04:08:36.256Z,13.20
2017-08-13T04:11:04.164Z,13.20
2017-08-13T04:13:31.105Z,13.10
2017-08-13T04:15:58.065Z,13.10
2017-08-13T04:18:25.942Z,13.20
2017-08-13T04:20:52.888Z,13.20
2017-08-13T04:23:19.846Z,13.10
2017-08-13T04:25:46.783Z,13.10
2017-08-13T04:28:13.732Z,13.10
2017-08-13T04:30:41.658Z,13.10
2017-08-13T04:33:08.592Z,13.10
2017-08-13T04:35:36.316Z,13.10
2017-08-13T04:38:03.336Z,13.10
2017-08-13T04:40:30.285Z,13.20
2017-08-13T04:42:57.222Z,13.30
2017-08-13T04:45:24.172Z,13.40
2017-08-13T04:47:51.104Z,13.40
2017-08-13T04:50:18.069Z,13.40
2017-08-13T04:52:45.016Z,13.30
2017-08-13T04:55:11.944Z,13.30
2017-08-13T04:57:38.892Z,13.30
2017-08-13T05:00:05.844Z,13.50
2017-08-13T05:02:32.781Z,13.70
2017-08-13T05:04:59.740Z,13.90
2017-08-13T05:07:26.681Z,14.00
2017-08-13T05:09:53.849Z,14.20
2017-08-13T05:12:20.781Z,14.30
2017-08-13T05:14:47.698Z,14.30
2017-08-13T05:17:14.645Z,14.20
2017-08-13T05:19:42.624Z,14.00
2017-08-13T05:22:10.597Z,14.00
2017-08-13T05:24:37.520Z,14.00
2017-08-13T05:27:05.408Z,14.00
2017-08-13T05:29:32.356Z,14.00
2017-08-13T05:31:59.836Z,14.00
2017-08-13T05:34:27.761Z,14.10
2017-08-13T05:36:54.719Z,14.20
2017-08-13T05:39:22.623Z,14.30
2017-08-13T05:41:49.560Z,14.60
2017-08-13T05:44:16.530Z,14.80
2017-08-13T05:46:44.241Z,15.30
2017-08-13T05:49:11.214Z,15.30
2017-08-13T05:51:38.164Z,15.40
2017-08-13T05:54:05.108Z,15.30
2017-08-13T05:56:32.050Z,15.30
2017-08-13T05:58:59.009Z,15.20
2017-08-13T06:01:25.950Z,15.30
2017-08-13T06:03:53.905Z,15.20
2017-08-13T06:06:20.839Z,15.20
2017-08-13T06:08:48.808Z,15.40
2017-08-13T06:11:15.756Z,15.30
2017-08-13T06:13:42.713Z,15.30
2017-08-13T06:16:10.622Z,15.00
2017-08-13T06:18:37.572Z,14.90
2017-08-13T06:21:04.509Z,14.90
2017-08-13T06:23:31.468Z,14.90
2017-08-13T06:25:58.402Z,14.90
2017-08-13T06:28:25.380Z,15.20
2017-08-13T06:30:52.314Z,15.50
2017-08-13T06:33:19.280Z,15.90
2017-08-13T06:35:46.307Z,16.00
2017-08-13T06:38:13.246Z,16.10
2017-08-13T06:40:41.104Z,16.30
2017-08-13T06:43:08.084Z,16.20
2017-08-13T06:45:35.021Z,16.10
2017-08-13T06:48:01.963Z,16.30
2017-08-13T06:50:28.906Z,16.50
2017-08-13T06:52:55.860Z,16.60
2017-08-13T06:55:22.797Z,16.80
2017-08-13T06:57:49.744Z,17.10
2017-08-13T07:00:16.677Z,17.30
2017-08-13T07:02:43.635Z,17.20
2017-08-13T07:05:10.569Z,16.90
2017-08-13T07:07:37.532Z,16.80
2017-08-13T07:10:04.479Z,16.80
2017-08-13T07:12:31.461Z,16.60
2017-08-13T07:14:59.172Z,16.80
2017-08-13T07:17:26.207Z,16.80
2017-08-13T07:19:53.144Z,16.80
2017-08-13T07:22:20.314Z,17.10
2017-08-13T07:24:47.246Z,17.30
2017-08-13T07:27:14.190Z,17.00
2017-08-13T07:29:41.150Z,16.70
2017-08-13T07:32:08.086Z,16.70
2017-08-13T07:34:35.022Z,16.50
2017-08-13T07:37:02.001Z,16.80
2017-08-13T07:39:28.939Z,17.20
2017-08-13T07:41:55.873Z,17.40
2017-08-13T07:44:22.807Z,17.10
2017-08-13T07:46:49.746Z,17.00
2017-08-13T07:49:16.707Z,17.10
2017-08-13T07:51:43.645Z,17.20
2017-08-13T07:54:10.591Z,17.00
2017-08-13T07:56:37.533Z,16.80
2017-08-13T07:59:04.484Z,16.60
2017-08-13T08:01:31.408Z,17.00
2017-08-13T08:03:58.380Z,17.20
2017-08-13T08:06:25.340Z,17.40
2017-08-13T08:08:52.276Z,17.40
2017-08-13T08:11:19.213Z,17.20
2017-08-13T08:13:46.146Z,16.90
2017-08-13T08:16:13.098Z,16.80
2017-08-13T08:18:40.046Z,17.00
2017-08-13T08:21:07.033Z,17.20
2017-08-13T08:23:33.980Z,17.50
2017-08-13T08:26:01.710Z,17.80
2017-08-13T08:28:30.670Z,17.80
2017-08-13T08:30:57.651Z,17.70
2017-08-13T08:33:24.584Z,18.10
2017-08-13T08:35:54.592Z,18.00
2017-08-13T08:38:21.544Z,17.80
2017-08-13T08:40:48.482Z,17.80
2017-08-13T08:43:15.469Z,18.10
2017-08-13T08:45:43.188Z,18.50
2017-08-13T08:48:10.145Z,18.50
2017-08-13T08:50:37.093Z,18.90
2017-08-13T08:53:04.038Z,18.20
2017-08-13T08:55:30.977Z,18.60
2017-08-13T08:57:57.928Z,18.00
2017-08-13T09:00:24.860Z,18.20
2017-08-13T09:02:51.818Z,18.50
2017-08-13T09:05:18.750Z,18.40
2017-08-13T09:07:45.721Z,18.40
2017-08-13T09:10:12.647Z,18.60
2017-08-13T09:12:39.589Z,19.00
2017-08-13T09:15:06.530Z,18.50
2017-08-13T09:17:33.486Z,18.10
2017-08-13T09:20:00.433Z,18.70
2017-08-13T09:22:27.392Z,18.50
2017-08-13T09:24:54.322Z,18.30
2017-08-13T09:27:21.284Z,18.20
2017-08-13T09:29:48.217Z,18.20
2017-08-13T09:32:15.177Z,18.50
2017-08-13T09:34:42.127Z,17.70
2017-08-13T09:37:09.869Z,17.50
2017-08-13T09:39:36.817Z,17.50
2017-08-13T09:42:03.784Z,17.80
2017-08-13T09:44:31.492Z,18.10
2017-08-13T09:46:58.535Z,18.10
2017-08-13T09:49:25.493Z,18.10
2017-08-13T09:51:52.433Z,18.20
2017-08-13T09:54:19.423Z,18.60
2017-08-13T09:56:47.167Z,18.40
2017-08-13T09:59:14.106Z,18.40
2017-08-13T10:01:41.065Z,18.00
2017-08-13T10:04:08.041Z,18.10
2017-08-13T10:06:34.986Z,17.80
2017-08-13T10:09:01.939Z,17.70
2017-08-13T10:11:28.873Z,17.50
2017-08-13T10:13:55.842Z,17.60
2017-08-13T10:16:22.797Z,17.90
2017-08-13T10:18:49.754Z,18.00
2017-08-13T10:21:16.744Z,18.00
2017-08-13T10:23:44.764Z,18.50
2017-08-13T10:26:12.513Z,18.90
2017-08-13T10:28:39.481Z,18.90
2017-08-13T19:45:17.126Z,15.10
2017-08-13T19:47:44.057Z,14.90
2017-08-13T19:50:11.005Z,14.90
2017-08-13T19:52:38.880Z,14.90
2017-08-13T19:55:05.839Z,14.80
2017-08-13T19:57:32.808Z,14.80
2017-08-13T19:59:59.761Z,14.70
2017-08-13T20:02:26.697Z,14.70
2017-08-13T20:04:53.681Z,14.70
2017-08-13T20:07:21.405Z,14.60
2017-08-13T20:09:48.356Z,14.60
2017-08-13T20:12:15.337Z,14.60
2017-08-13T20:14:43.052Z,14.40
2017-08-13T20:17:09.989Z,14.40
2017-08-13T20:19:37.961Z,14.40
2017-08-13T20:22:04.892Z,14.30
2017-08-13T20:24:31.845Z,14.30
2017-08-13T20:26:58.772Z,14.30
2017-08-13T20:29:25.730Z,14.30
2017-08-13T20:31:52.671Z,14.20
2017-08-13T20:34:19.608Z,14.20
2017-08-13T20:36:46.542Z,14.00
2017-08-13T20:39:13.498Z,14.10
2017-08-13T20:41:40.449Z,14.00
2017-08-13T20:44:07.402Z,14.10
2017-08-13T20:46:34.333Z,14.10
2017-08-13T20:49:01.260Z,14.00
2017-08-13T20:51:28.212Z,13.90
2017-08-13T20:53:55.145Z,13.90
2017-08-13T20:56:22.083Z,13.90
2017-08-13T20:58:49.772Z,13.70
2017-08-13T21:01:16.740Z,13.70
2017-08-13T21:03:43.654Z,13.60
2017-08-13T21:06:10.624Z,13.60
2017-08-13T21:08:37.598Z,13.70
2017-08-13T21:11:04.546Z,13.70
2017-08-13T21:13:31.498Z,13.60
2017-08-13T21:15:59.203Z,13.50
2017-08-13T21:18:26.136Z,13.50
2017-08-13T21:20:53.105Z,13.60
2017-08-13T21:23:20.041Z,13.60
2017-08-13T21:25:47.010Z,13.70
2017-08-13T21:28:13.927Z,13.60
2017-08-13T21:30:40.877Z,13.50
2017-08-13T21:33:07.800Z,13.40
2017-08-13T21:35:34.764Z,13.50
2017-08-13T21:38:01.679Z,13.50
2017-08-13T21:40:29.387Z,13.40
2017-08-13T21:42:57.373Z,13.40
2017-08-13T21:45:24.376Z,13.40
2017-08-13T21:47:51.340Z,13.20
2017-08-13T21:50:18.299Z,13.20
2017-08-13T21:52:46.252Z,13.30
2017-08-13T21:55:14.182Z,13.20
2017-08-13T21:57:42.092Z,13.20
2017-08-13T22:00:20.301Z,13.20
2017-08-13T22:02:47.269Z,13.10
2017-08-13T22:05:14.205Z,13.00
2017-08-13T22:07:41.165Z,12.90
2017-08-13T22:10:08.119Z,12.90
2017-08-13T22:12:35.820Z,12.80
2017-08-13T22:15:02.797Z,12.80
2017-08-13T22:17:29.724Z,12.80
2017-08-13T22:19:56.669Z,12.80
2017-08-13T22:22:23.609Z,12.70
2017-08-13T22:24:50.539Z,12.70
2017-08-13T22:27:17.488Z,12.90
2017-08-13T22:29:44.441Z,12.90
2017-08-13T22:32:11.363Z,12.80
2017-08-13T22:34:38.275Z,12.60
2017-08-13T22:37:05.252Z,12.70
2017-08-13T22:39:32.558Z,12.70
2017-08-13T22:41:59.505Z,12.70
2017-08-13T22:44:27.415Z,13.00
2017-08-13T22:46:55.313Z,12.90
2017-08-13T22:49:22.233Z,12.60
2017-08-13T22:51:49.169Z,12.50
2017-08-13T22:54:16.905Z,12.40
2017-08-13T22:56:44.834Z,12.40
2017-08-13T22:59:11.785Z,12.30
2017-08-13T23:01:38.766Z,12.30
2017-08-13T23:04:06.462Z,12.10
2017-08-13T23:06:33.411Z,12.10
2017-08-13T23:09:00.373Z,11.90
2017-08-13T23:11:27.320Z,11.80
2017-08-13T23:13:54.302Z,11.90
2017-08-13T23:16:21.257Z,12.10
2017-08-13T23:18:48.217Z,12.10
2017-08-13T23:21:16.941Z,12.20
2017-08-13T23:23:43.885Z,12.10
2017-08-13T23:26:11.587Z,12.20
2017-08-13T23:28:38.536Z,12.20
2017-08-13T23:31:05.470Z,12.20
2017-08-13T23:33:32.418Z,12.20
2017-08-13T23:35:59.352Z,12.00
2017-08-13T23:38:26.301Z,12.00
2017-08-13T23:40:53.224Z,12.10
2017-08-13T23:43:20.953Z,12.00
2017-08-13T23:45:48.880Z,12.00
2017-08-13T23:48:15.816Z,12.20
2017-08-13T23:50:42.785Z,12.10
2017-08-13T23:53:09.720Z,12.10
2017-08-13T23:55:36.696Z,12.10
2017-08-13T23:58:04.387Z,11.90
